Time;durP1;ratioP1;P1;durP2;ratioP2;P2;SDS_P1;SDS_P2;PMS_P1;PMS_P2;Temp;Humidity;BMP_temperature;BMP_pressure;BME280_temperature;BME280_humidity;BME280_pressure;Samples;Min_cycle;Max_cycle;Signal;HPM_P1;HPM_P2
2023/11/19 00:04:41;;;;;;;1999.90;999.90;;;;;;;18.71;81.40;100707.91;10414303;28;20419;-64
2023/11/19 00:09:43;;;;;;;1999.90;999.90;;;;;;;18.76;85.38;100707.47;10397692;28;20500;-64
2023/11/19 00:14:45;;;;;;;1999.90;999.90;;;;;;;18.98;83.47;100692.22;10414761;28;20045;-65
2023/11/19 00:19:51;;;;;;;1999.90;999.90;;;;;;;19.57;79.00;100683.00;10397451;28;20069;-65
2023/11/19 00:24:53;;;;;;;1999.90;999.90;;;;;;;18.79;80.93;100655.97;10415118;28;20053;-62
2023/11/19 00:29:56;;;;;;;1999.90;999.90;;;;;;;18.26;84.43;100670.59;10422568;28;20130;-62
2023/11/19 00:34:59;;;;;;;1999.90;999.90;;;;;;;19.30;77.96;100663.44;10422317;28;20045;-65
2023/11/19 00:40:05;;;;;;;1999.90;999.90;;;;;;;18.90;82.03;100669.09;10422745;28;20049;-65
2023/11/19 00:45:09;;;;;;;1999.90;999.90;;;;;;;19.64;78.57;100665.47;10422460;28;20103;-65
2023/11/19 00:50:12;;;;;;;1999.90;999.90;;;;;;;18.89;80.89;100662.94;10421631;28;20045;-65
2023/11/19 00:55:15;;;;;;;1999.90;999.90;;;;;;;19.67;78.64;100664.34;10421462;28;20053;-65
2023/11/19 01:00:18;;;;;;;1999.90;999.90;;;;;;;19.35;79.26;100668.31;10421169;28;20500;-62
2023/11/19 01:05:22;;;;;;;1999.90;999.90;;;;;;;19.44;80.14;100654.13;10421303;28;20049;-62
2023/11/19 01:10:25;;;;;;;1999.90;999.90;;;;;;;19.57;79.17;100652.94;10420909;28;20049;-62
2023/11/19 01:15:28;;;;;;;1999.90;999.90;;;;;;;19.29;76.95;100639.72;10421074;28;20088;-62
2023/11/19 01:20:30;;;;;;;1999.90;999.90;;;;;;;19.33;80.66;100638.41;10420465;28;20496;-62
2023/11/19 01:25:34;;;;;;;1999.90;999.90;;;;;;;19.27;78.66;100647.81;10420586;28;20057;-62
2023/11/19 01:30:36;;;;;;;1999.90;999.90;;;;;;;19.51;76.50;100645.59;10420358;28;20049;-62
2023/11/19 01:35:39;;;;;;;1999.90;999.90;;;;;;;19.29;79.31;100648.50;10420397;28;20057;-62
2023/11/19 01:40:41;;;;;;;1999.90;999.90;;;;;;;19.51;76.60;100614.56;10418906;28;20077;-62
2023/11/19 01:45:44;;;;;;;1999.90;999.90;;;;;;;19.62;76.37;100629.44;10419690;28;20053;-62
2023/11/19 01:50:47;;;;;;;1999.90;999.90;;;;;;;18.92;81.15;100635.28;10419371;28;20397;-63
2023/11/19 01:55:49;;;;;;;1999.90;999.90;;;;;;;19.02;81.07;100629.94;10419155;28;20415;-62
2023/11/19 02:00:52;;;;;;;1999.90;999.90;;;;;;;18.62;81.94;100639.00;10419139;28;20056;-62
2023/11/19 02:05:54;;;;;;;1999.90;999.90;;;;;;;18.99;78.30;100622.28;10418888;28;20053;-62
2023/11/19 02:10:56;;;;;;;1999.90;999.90;;;;;;;19.37;77.10;100615.09;10418580;28;20051;-62
2023/11/19 02:15:59;;;;;;;1999.90;999.90;;;;;;;19.71;75.55;100622.38;10418571;28;20049;-62
2023/11/19 02:21:02;;;;;;;1999.90;999.90;;;;;;;19.97;73.69;100617.16;10418274;28;20061;-62
2023/11/19 02:26:26;;;;;;;1999.90;999.90;;;;;;;19.27;76.33;100615.16;10418375;28;20080;-62
2023/11/19 02:31:28;;;;;;;1999.90;999.90;;;;;;;19.06;76.33;100607.44;10417895;28;20056;-62
2023/11/19 02:36:31;;;;;;;1999.90;999.90;;;;;;;19.43;75.52;100623.28;10417505;28;20381;-62
2023/11/19 02:41:34;;;;;;;1999.90;999.90;;;;;;;18.26;80.92;100613.13;10417503;28;20128;-62
2023/11/19 02:46:36;;;;;;;1999.90;999.90;;;;;;;19.08;75.76;100618.72;10416970;28;20080;-62
2023/11/19 02:51:38;;;;;;;1999.90;999.90;;;;;;;19.37;75.06;100617.75;10417008;28;20063;-62
2023/11/19 02:56:43;;;;;;;1999.90;999.90;;;;;;;19.06;74.36;100620.69;10416891;28;20053;-62
2023/11/19 03:01:50;;;;;;;1999.90;999.90;;;;;;;18.90;78.32;100614.22;10416924;28;20132;-62
2023/11/19 03:06:53;;;;;;;1999.90;999.90;;;;;;;19.04;75.11;100622.66;10416901;28;20061;-62
2023/11/19 03:11:56;;;;;;;1999.90;999.90;;;;;;;19.11;74.61;100621.09;10416229;28;20159;-63
2023/11/19 03:16:58;;;;;;;1999.90;999.90;;;;;;;18.75;75.18;100623.59;10416181;28;20053;-62
2023/11/19 03:22:02;;;;;;;1999.90;999.90;;;;;;;18.44;76.47;100626.50;10416145;28;20061;-63
2023/11/19 03:27:04;;;;;;;1999.90;999.90;;;;;;;18.68;75.16;100617.22;10415839;28;20099;-63
2023/11/19 03:32:07;;;;;;;1999.90;999.90;;;;;;;17.87;77.70;100639.66;10415646;28;20053;-62
2023/11/19 03:37:09;;;;;;;1999.90;999.90;;;;;;;17.43;78.42;100632.06;10415469;28;20057;-62
2023/11/19 03:42:13;;;;;;;1999.90;999.90;;;;;;;17.58;76.31;100613.13;10415483;28;20077;-62
2023/11/19 03:47:15;;;;;;;1999.90;999.90;;;;;;;17.50;76.46;100605.03;10415209;28;20045;-62
2023/11/19 03:52:18;;;;;;;1999.90;999.90;;;;;;;18.07;73.25;100603.41;10397595;28;20057;-62
2023/11/19 03:57:23;;;;;;;1999.90;999.90;;;;;;;17.36;74.59;100611.56;10382196;28;20054;-62
2023/11/19 04:02:27;;;;;;;1999.90;999.90;;;;;;;18.37;73.51;100612.97;10419923;28;20407;-62
2023/11/19 04:07:30;;;;;;;1999.90;999.90;;;;;;;18.11;72.59;100623.34;10406082;28;20057;-62
2023/11/19 04:12:32;;;;;;;1999.90;999.90;;;;;;;18.16;72.97;100609.66;10423172;28;20065;-62
2023/11/19 04:17:35;;;;;;;1999.90;999.90;;;;;;;17.48;74.97;100621.06;10422867;28;20382;-62
2023/11/19 04:22:37;;;;;;;1999.90;999.90;;;;;;;17.78;72.18;100624.56;10422690;28;20123;-62
2023/11/19 04:27:40;;;;;;;1999.90;999.90;;;;;;;17.64;72.88;100623.19;10422664;28;20055;-62
2023/11/19 04:32:42;;;;;;;1999.90;999.90;;;;;;;17.08;74.86;100628.09;10422290;28;20484;-62
2023/11/19 04:37:45;;;;;;;1999.90;999.90;;;;;;;17.66;71.87;100634.47;10422090;28;20099;-62
2023/11/19 04:42:47;;;;;;;1999.90;999.90;;;;;;;17.47;71.77;100653.81;10404636;28;20077;-62
2023/11/19 04:47:49;;;;;;;1999.90;999.90;;;;;;;17.18;73.72;100643.13;10421576;28;20425;-62
2023/11/19 04:52:52;;;;;;;1999.90;999.90;;;;;;;17.30;74.09;100649.16;10422006;28;20057;-62
2023/11/19 04:57:55;;;;;;;1999.90;999.90;;;;;;;17.25;74.04;100644.28;10421406;28;20045;-62
2023/11/19 05:02:57;;;;;;;1999.90;999.90;;;;;;;17.82;71.46;100639.22;10421238;28;20508;-62
2023/11/19 05:07:59;;;;;;;1999.90;999.90;;;;;;;17.46;71.08;100646.81;10421106;28;20060;-62
2023/11/19 05:13:02;;;;;;;1999.90;999.90;;;;;;;17.40;72.13;100636.78;10420700;28;20124;-62
2023/11/19 05:18:04;;;;;;;1999.90;999.90;;;;;;;16.58;73.94;100659.69;10421130;28;20077;-62
2023/11/19 05:23:07;;;;;;;1999.90;999.90;;;;;;;17.41;71.72;100647.22;10420621;28;20109;-62
2023/11/19 05:28:24;;;;;;;1999.90;999.90;;;;;;;16.96;72.44;100642.34;10420411;28;20041;-62
2023/11/19 05:33:26;;;;;;;1999.90;999.90;;;;;;;16.83;72.93;100644.38;10420010;28;20049;-62
2023/11/19 05:38:29;;;;;;;1999.90;999.90;;;;;;;16.42;74.52;100636.34;10420067;28;20046;-62
2023/11/19 05:43:32;;;;;;;1999.90;999.90;;;;;;;16.85;73.05;100648.59;10419775;28;20064;-62
2023/11/19 05:48:35;;;;;;;1999.90;999.90;;;;;;;16.93;73.16;100649.72;10419420;28;20048;-63
2023/11/19 05:53:37;;;;;;;1999.90;999.90;;;;;;;16.80;71.90;100663.16;10401860;28;20132;-62
2023/11/19 05:58:40;;;;;;;1999.90;999.90;;;;;;;16.93;71.97;100666.44;10419073;28;20054;-62
2023/11/19 06:03:43;;;;;;;1999.90;999.90;;;;;;;16.82;72.66;100662.03;10401664;28;20065;-62
2023/11/19 06:08:46;;;;;;;1999.90;999.90;;;;;;;17.36;70.49;100651.25;10418509;28;20045;-62
2023/11/19 06:13:50;;;;;;;1999.90;999.90;;;;;;;16.41;73.48;100649.69;10419071;28;20050;-62
2023/11/19 06:18:53;;;;;;;1999.90;999.90;;;;;;;16.77;72.50;100655.47;10419088;28;20069;-62
2023/11/19 06:23:56;;;;;;;1999.90;999.90;;;;;;;16.49;72.86;100666.59;10417546;28;20079;-62
2023/11/19 06:28:58;;;;;;;1999.90;999.90;;;;;;;16.45;72.59;100657.25;10418059;28;20052;-62
2023/11/19 06:34:01;;;;;;;1999.90;999.90;;;;;;;16.92;70.66;100663.94;10417670;28;20488;-62
2023/11/19 06:39:03;;;;;;;1999.90;999.90;;;;;;;16.39;72.79;100663.06;10417630;28;20045;-62
2023/11/19 06:44:06;;;;;;;1999.90;999.90;;;;;;;16.57;72.88;100670.41;10417383;28;20056;-62
2023/11/19 06:49:08;;;;;;;1999.90;999.90;;;;;;;16.96;70.59;100660.88;10416114;28;20132;-62
2023/11/19 06:54:11;;;;;;;1999.90;999.90;;;;;;;16.46;73.32;100671.31;10416869;28;20054;-62
2023/11/19 06:59:14;;;;;;;1999.90;999.90;;;;;;;17.06;71.38;100666.19;10417051;28;20128;-62
2023/11/19 07:04:16;;;;;;;1999.90;999.90;;;;;;;16.06;74.40;100679.91;10416697;28;20064;-62
2023/11/19 07:09:18;;;;;;;1999.90;999.90;;;;;;;16.55;73.34;100664.41;10416461;28;20042;-62
2023/11/19 07:14:23;;;;;;;1999.90;999.90;;;;;;;16.20;74.92;100681.41;10416205;28;20492;-62
2023/11/19 07:19:25;;;;;;;1999.90;999.90;;;;;;;16.04;74.90;100687.09;10416163;28;20053;-62
2023/11/19 07:24:28;;;;;;;1999.90;999.90;;;;;;;15.92;75.48;100689.81;10416122;28;20057;-62
2023/11/19 07:29:31;;;;;;;1999.90;999.90;;;;;;;17.05;70.57;100691.81;10415664;28;20045;-63
2023/11/19 07:34:35;;;;;;;1999.90;999.90;;;;;;;16.52;73.46;100705.13;10415221;28;20049;-63
2023/11/19 07:39:40;;;;;;;1999.90;999.90;;;;;;;16.53;71.68;100712.09;10415570;28;20056;-63
2023/11/19 07:44:44;;;;;;;1999.90;999.90;;;;;;;16.90;72.19;100711.66;10397633;28;20399;-63
2023/11/19 07:49:46;;;;;;;1999.90;999.90;;;;;;;16.25;73.53;100719.66;10414229;28;20099;-62
2023/11/19 07:54:49;;;;;;;1999.90;999.90;;;;;;;17.06;71.39;100729.69;10415699;28;20073;-63
2023/11/19 07:59:51;;;;;;;1999.90;999.90;;;;;;;16.82;73.14;100729.94;10414944;28;20056;-62
2023/11/19 08:04:54;;;;;;;1999.90;999.90;;;;;;;16.76;72.25;100720.75;10415093;28;20050;-62
2023/11/19 08:09:57;;;;;;;1999.90;999.90;;;;;;;16.45;71.44;100733.03;10414742;28;20042;-63
2023/11/19 08:14:59;;;;;;;1999.90;999.90;;;;;;;17.40;69.62;100727.63;10414935;28;20049;-63
2023/11/19 08:20:02;;;;;;;1999.90;999.90;;;;;;;17.54;70.32;100726.41;10414614;28;20080;-63
2023/11/19 08:25:06;;;;;;;1999.90;999.90;;;;;;;17.15;71.00;100733.38;10414878;28;20065;-63
2023/11/19 08:30:09;;;;;;;1999.90;999.90;;;;;;;17.48;70.17;100726.09;10396995;28;20068;-63
2023/11/19 08:40:19;;;;;;;1999.90;999.90;;;;;;;16.76;71.45;100733.09;10291175;28;20050;-76
2023/11/19 08:45:22;;;;;;;1999.90;999.90;;;;;;;17.76;68.31;100730.63;10292753;28;20082;-76
2023/11/19 08:50:24;;;;;;;1999.90;999.90;;;;;;;17.21;70.16;100732.81;10298687;28;20494;-77
2023/11/19 08:55:27;;;;;;;1999.90;999.90;;;;;;;17.15;70.77;100736.00;10299778;28;20442;-76
2023/11/19 09:00:29;;;;;;;1999.90;999.90;;;;;;;18.54;68.42;100729.84;10298658;28;20042;-76
2023/11/19 09:05:32;;;;;;;1999.90;999.90;;;;;;;17.22;69.79;100730.03;10298658;28;20075;-76
2023/11/19 09:10:34;;;;;;;1999.90;999.90;;;;;;;17.23;70.87;100730.88;10299217;28;20047;-75
2023/11/19 09:15:37;;;;;;;1999.90;999.90;;;;;;;17.70;69.27;100733.84;10298183;28;20057;-76
2023/11/19 09:20:39;;;;;;;1999.90;999.90;;;;;;;17.46;70.10;100740.28;10297884;28;20051;-76
2023/11/19 09:25:42;;;;;;;1999.90;999.90;;;;;;;16.60;72.60;100742.31;10297791;28;20047;-76
2023/11/19 09:30:47;;;;;;;1999.90;999.90;;;;;;;18.13;67.74;100750.38;10297363;28;20131;-76
2023/11/19 09:35:49;;;;;;;1999.90;999.90;;;;;;;17.52;69.65;100738.94;10298135;28;20058;-76
2023/11/19 09:40:52;;;;;;;1999.90;999.90;;;;;;;17.79;68.50;100748.06;10297567;28;20046;-76
2023/11/19 09:45:55;;;;;;;1999.90;999.90;;;;;;;17.64;69.72;100734.38;10298110;28;20397;-76
2023/11/19 09:50:58;;;;;;;1999.90;999.90;;;;;;;18.27;66.33;100733.22;10296645;28;20525;-76
2023/11/19 09:56:05;;;;;;;1999.90;999.90;;;;;;;18.36;66.61;100738.50;10296372;28;20141;-76
2023/11/19 10:01:10;;;;;;;1999.90;999.90;;;;;;;18.44;65.49;100748.44;10295292;28;20130;-76
2023/11/19 10:06:16;;;;;;;1999.90;999.90;;;;;;;17.67;68.60;100739.41;10296108;28;20057;-76
2023/11/19 10:11:18;;;;;;;1999.90;999.90;;;;;;;17.08;68.88;100741.81;10279970;28;20078;-75
2023/11/19 10:16:20;;;;;;;1999.90;999.90;;;;;;;17.80;67.51;100732.03;10297384;28;20474;-76
2023/11/19 10:21:23;;;;;;;1999.90;999.90;;;;;;;18.30;66.77;100727.63;10295349;28;20553;-77
2023/11/19 10:26:26;;;;;;;1999.90;999.90;;;;;;;18.70;65.78;100730.09;10295093;28;20125;-76
2023/11/19 10:31:29;;;;;;;1999.90;999.90;;;;;;;17.95;66.90;100718.41;10296055;28;20094;-77
2023/11/19 10:36:41;;;;;;;1999.90;999.90;;;;;;;18.67;65.46;100713.66;10294894;28;20134;-76
2023/11/19 10:41:43;;;;;;;1999.90;999.90;;;;;;;18.10;65.85;100722.31;10294620;28;20047;-77
2023/11/19 10:46:46;;;;;;;1999.90;999.90;;;;;;;18.03;67.08;100715.09;10294694;28;20139;-76
2023/11/19 10:51:49;;;;;;;1999.90;999.90;;;;;;;18.57;64.54;100703.88;10294092;28;20055;-76
2023/11/19 10:56:57;;;;;;;1999.90;999.90;;;;;;;18.97;62.61;100696.69;10294369;28;20047;-76
2023/11/19 11:02:03;;;;;;;1999.90;999.90;;;;;;;19.94;61.58;100684.72;10294477;28;20054;-76
2023/11/19 11:07:06;;;;;;;1999.90;999.90;;;;;;;18.69;64.74;100682.50;10293797;28;20051;-76
2023/11/19 11:12:10;;;;;;;1999.90;999.90;;;;;;;18.93;63.66;100677.59;10293588;28;20057;-77
2023/11/19 11:17:14;;;;;;;1999.90;999.90;;;;;;;19.12;62.66;100683.78;10293360;28;20478;-77
2023/11/19 11:22:16;;;;;;;1999.90;999.90;;;;;;;19.15;62.51;100662.28;10293558;28;20050;-76
2023/11/19 11:27:55;;;;;;;1999.90;999.90;;;;;;;20.05;60.29;100681.00;10293157;28;20409;-76
2023/11/19 11:33:27;;;;;;;1999.90;999.90;;;;;;;19.63;61.95;100677.06;10293507;28;20058;-76
2023/11/19 11:38:29;;;;;;;;;;;;;;;19.59;62.14;100665.09;10290143;28;20058;-74
2023/11/19 11:43:45;;;;;;;1999.90;999.90;;;;;;;19.85;61.41;100659.06;10293754;28;19929;-73
2023/11/19 11:48:49;;;;;;;1999.90;999.90;;;;;;;19.69;61.45;100670.34;10293658;28;20051;-76
2023/11/19 11:53:52;;;;;;;1999.90;999.90;;;;;;;18.94;62.93;100659.84;10292781;28;20055;-75
2023/11/19 11:58:55;;;;;;;1999.90;999.90;;;;;;;18.87;62.37;100654.28;10292377;28;20051;-74
2023/11/19 12:03:58;;;;;;;1999.90;999.90;;;;;;;19.77;61.72;100658.97;10293610;28;20055;-77
2023/11/19 12:09:00;;;;;;;1999.90;999.90;;;;;;;19.08;61.12;100654.06;10293143;28;20383;-76
2023/11/19 12:14:03;;;;;;;1999.90;999.90;;;;;;;18.43;65.23;100655.78;10292572;28;20105;-77
2023/11/19 12:19:07;;;;;;;1999.90;999.90;;;;;;;18.32;65.32;100670.84;10293589;28;20039;-70
2023/11/19 12:24:09;;;;;;;1999.90;999.90;;;;;;;18.90;63.98;100656.66;10297826;28;20523;-77
2023/11/19 12:29:12;;;;;;;1999.90;999.90;;;;;;;18.30;66.22;100650.78;10299806;28;20060;-78
2023/11/19 12:34:14;;;;;;;1999.90;999.90;;;;;;;19.81;61.19;100644.44;10299499;28;20057;-75
2023/11/19 12:39:16;;;;;;;1999.90;999.90;;;;;;;18.67;64.39;100655.31;10300432;28;20047;-76
2023/11/19 12:44:19;;;;;;;1999.90;999.90;;;;;;;18.13;65.47;100655.81;10299321;28;20060;-76
2023/11/19 12:49:21;;;;;;;1999.90;999.90;;;;;;;18.34;63.72;100655.66;10299860;28;20478;-76
2023/11/19 12:54:36;;;;;;;1999.90;999.90;;;;;;;19.10;63.81;100652.09;10300303;28;20050;-77
2023/11/19 12:59:39;;;;;;;1999.90;999.90;;;;;;;18.32;65.80;100654.94;10299885;28;20046;-77
2023/11/19 13:04:42;;;;;;;1999.90;999.90;;;;;;;19.25;63.02;100647.13;10282776;28;20050;-77
2023/11/19 13:09:45;;;;;;;1999.90;999.90;;;;;;;18.45;65.58;100652.00;10299708;28;20047;-76
2023/11/19 13:14:49;;;;;;;1999.90;999.90;;;;;;;18.45;63.23;100652.00;10299229;28;20461;-76
2023/11/19 13:19:52;;;;;;;1999.90;999.90;;;;;;;19.15;62.54;100646.34;10299387;28;20047;-76
2023/11/19 13:24:54;;;;;;;1999.90;999.90;;;;;;;18.60;63.37;100631.19;10297619;28;20058;-77
2023/11/19 13:29:56;;;;;;;1999.90;999.90;;;;;;;18.22;64.79;100629.47;10297787;28;20050;-77
2023/11/19 13:35:00;;;;;;;1999.90;999.90;;;;;;;18.13;64.83;100634.63;10297039;28;20060;-77
2023/11/19 13:40:03;;;;;;;1999.90;999.90;;;;;;;18.57;64.65;100637.59;10296229;28;20088;-77
2023/11/19 13:45:10;;;;;;;1999.90;999.90;;;;;;;18.26;68.19;100644.94;10297057;28;20062;-77
2023/11/19 13:50:14;;;;;;;1999.90;999.90;;;;;;;18.27;71.16;100654.53;10297840;28;20138;-79
2023/11/19 13:55:18;;;;;;;1999.90;999.90;;;;;;;17.10;75.64;100635.88;10296965;28;20054;-81
2023/11/19 14:00:22;;;;;;;1999.90;999.90;;;;;;;18.37;74.14;100660.69;10296512;28;20501;-80
2023/11/19 14:05:25;;;;;;;1999.90;999.90;;;;;;;18.46;73.70;100650.19;10296332;28;20490;-79
2023/11/19 14:10:30;;;;;;;1999.90;999.90;;;;;;;18.11;73.92;100641.88;10296153;28;20055;-80
2023/11/19 14:15:32;;;;;;;1999.90;999.90;;;;;;;17.98;75.66;100642.16;10296733;28;20047;-79
2023/11/19 14:20:36;;;;;;;1999.90;999.90;;;;;;;17.82;75.28;100633.94;10296211;28;20088;-79
2023/11/19 14:25:39;;;;;;;1999.90;999.90;;;;;;;17.90;76.40;100622.66;10280149;28;20050;-78
2023/11/19 14:30:42;;;;;;;1999.90;999.90;;;;;;;17.30;76.14;100622.69;10295567;28;20051;-78
2023/11/19 14:35:44;;;;;;;1999.90;999.90;;;;;;;17.93;72.40;100625.84;10296717;28;20082;-79
2023/11/19 14:40:47;;;;;;;1999.90;999.90;;;;;;;17.50;74.71;100624.44;10296184;28;20169;-78
2023/11/19 14:45:50;;;;;;;1999.90;999.90;;;;;;;17.17;76.32;100622.97;10294405;28;20065;-81
2023/11/19 14:50:52;;;;;;;1999.90;999.90;;;;;;;17.53;74.07;100629.41;10296195;28;20053;-81
2023/11/19 14:55:55;;;;;;;1999.90;999.90;;;;;;;18.42;71.37;100617.81;10294628;28;20051;-82
2023/11/19 15:00:57;;;;;;;1999.90;999.90;;;;;;;18.47;71.69;100610.28;10294348;28;20047;-82
2023/11/19 15:06:00;;;;;;;1999.90;999.90;;;;;;;18.29;72.44;100642.00;10295753;28;20141;-83
2023/11/19 15:11:04;;;;;;;1999.90;999.90;;;;;;;17.15;78.70;100638.97;10294563;28;20110;-81
2023/11/19 15:16:10;;;;;;;1999.90;999.90;;;;;;;17.18;76.29;100621.97;10294065;28;20051;-80
2023/11/19 15:21:13;;;;;;;1999.90;999.90;;;;;;;17.23;77.04;100619.75;10278355;28;20054;-82
2023/11/19 15:26:15;;;;;;;1999.90;999.90;;;;;;;17.08;77.99;100617.50;10293906;28;20094;-81
2023/11/19 15:31:18;;;;;;;1999.90;999.90;;;;;;;17.13;77.31;100617.09;10293449;28;20078;-79
2023/11/19 15:36:20;;;;;;;1999.90;999.90;;;;;;;17.21;76.61;100619.88;10290184;28;20063;-79
2023/11/19 15:41:22;;;;;;;1999.90;999.90;;;;;;;16.45;79.46;100622.06;10294159;28;20402;-79
2023/11/19 15:46:25;;;;;;;1999.90;999.90;;;;;;;17.26;76.35;100611.53;10294320;28;20054;-79
2023/11/19 15:51:27;;;;;;;1999.90;999.90;;;;;;;17.27;75.07;100605.31;10294085;28;20047;-79
2023/11/19 15:56:30;;;;;;;1999.90;999.90;;;;;;;16.80;77.18;100605.81;10293074;28;20058;-79
2023/11/19 16:01:33;;;;;;;1999.90;999.90;;;;;;;16.47;79.68;100605.09;10292705;28;20047;-78
2023/11/19 16:06:36;;;;;;;1999.90;999.90;;;;;;;16.97;77.19;100607.03;10293667;28;20105;-78
2023/11/19 16:11:42;;;;;;;1999.90;999.90;;;;;;;16.61;77.73;100611.00;10292237;28;20054;-78
2023/11/19 16:16:57;;;;;;;1999.90;999.90;;;;;;;16.54;79.02;100610.69;10293375;28;20058;-79
2023/11/19 16:22:09;;;;;;;1999.90;999.90;;;;;;;16.19;80.25;100617.19;10292455;28;20115;-79
2023/11/19 16:27:12;;;;;;;1999.90;999.90;;;;;;;16.58;78.85;100621.88;10292758;28;20054;-77
2023/11/19 16:32:17;;;;;;;1999.90;999.90;;;;;;;16.90;77.79;100617.28;10293704;28;20053;-78
2023/11/19 16:37:22;;;;;;;1999.90;999.90;;;;;;;17.29;77.35;100621.88;10293032;28;20522;-78
2023/11/19 16:42:25;;;;;;;1999.90;999.90;;;;;;;17.64;73.04;100623.19;10291925;28;20505;-78
2023/11/19 16:47:28;;;;;;;1999.90;999.90;;;;;;;17.05;76.44;100627.53;10293401;28;20054;-77
2023/11/19 16:52:34;;;;;;;1999.90;999.90;;;;;;;17.40;75.86;100627.06;10292821;28;20054;-77
2023/11/19 16:57:38;;;;;;;1999.90;999.90;;;;;;;17.26;77.41;100625.63;10292964;28;20051;-78
2023/11/19 17:02:42;;;;;;;1999.90;999.90;;;;;;;16.27;82.98;100632.38;10293114;28;20134;-79
2023/11/19 17:07:47;;;;;;;1999.90;999.90;;;;;;;16.35;83.24;100637.84;10294698;28;20414;-79
2023/11/19 17:12:52;;;;;;;1999.90;999.90;;;;;;;16.67;80.84;100635.09;10299852;28;20054;-80
2023/11/19 17:17:55;;;;;;;1999.90;999.90;;;;;;;16.50;79.51;100619.88;10298243;28;20051;-79
2023/11/19 17:22:57;;;;;;;1999.90;999.90;;;;;;;16.59;80.72;100619.06;10299119;28;20130;-80
2023/11/19 17:27:59;;;;;;;1999.90;999.90;;;;;;;17.21;80.00;100613.78;10298240;28;20055;-80
2023/11/19 17:33:05;;;;;;;1999.90;999.90;;;;;;;17.41;78.84;100612.81;10297909;28;20057;-80
2023/11/19 17:38:07;;;;;;;1999.90;999.90;;;;;;;17.11;80.40;100602.31;10297693;28;20059;-81
2023/11/19 17:43:28;;;;;;;1999.90;999.90;;;;;;;16.77;80.81;100602.59;10297594;28;20455;-80
2023/11/19 17:48:32;;;;;;;1999.90;999.90;;;;;;;16.31;83.88;100595.00;10298326;28;20050;-80
2023/11/19 17:53:37;;;;;;;1999.90;999.90;;;;;;;16.85;80.95;100594.88;10297056;28;20078;-81
2023/11/19 17:58:40;;;;;;;1999.90;999.90;;;;;;;16.90;82.53;100590.84;10297144;28;20484;-81
2023/11/19 18:03:42;;;;;;;1999.90;999.90;;;;;;;16.38;84.11;100584.75;10297288;28;20053;-81
2023/11/19 18:08:46;;;;;;;1999.90;999.90;;;;;;;16.38;84.88;100594.50;10296692;28;20545;-80
2023/11/19 18:13:49;;;;;;;1999.90;999.90;;;;;;;16.90;83.43;100590.84;10296543;28;20133;-81
2023/11/19 18:18:51;;;;;;;1999.90;999.90;;;;;;;16.44;84.03;100578.97;10295351;28;20077;-81
2023/11/19 18:23:54;;;;;;;1999.90;999.90;;;;;;;16.46;85.91;100589.41;10280078;28;20102;-81
2023/11/19 18:28:56;;;;;;;1999.90;999.90;;;;;;;16.63;85.61;100580.03;10296702;28;20047;-80
2023/11/19 18:33:59;;;;;;;1999.90;999.90;;;;;;;16.39;84.54;100577.66;10297228;28;20050;-81
2023/11/19 18:39:03;;;;;;;1999.90;999.90;;;;;;;16.97;80.99;100575.28;10296611;28;20498;-80
2023/11/19 18:44:07;;;;;;;1999.90;999.90;;;;;;;16.85;83.21;100589.59;10295607;28;20387;-80
2023/11/19 18:49:09;;;;;;;1999.90;999.90;;;;;;;16.60;85.24;100575.00;10295906;28;20050;-82
2023/11/19 18:54:11;;;;;;;1999.90;999.90;;;;;;;16.69;83.12;100575.03;10295996;28;20057;-80
2023/11/19 18:59:17;;;;;;;1999.90;999.90;;;;;;;16.28;84.63;100566.22;10294622;28;20121;-80
2023/11/19 19:04:19;;;;;;;1999.90;999.90;;;;;;;16.19;86.60;100574.94;10295414;28;20051;-80
2023/11/19 19:09:22;;;;;;;1999.90;999.90;;;;;;;16.84;82.87;100570.22;10295161;28;20082;-81
2023/11/19 19:14:24;;;;;;;1999.90;999.90;;;;;;;16.56;86.33;100574.44;10294528;28;20133;-81
2023/11/19 19:19:27;;;;;;;1999.90;999.90;;;;;;;16.69;84.17;100576.81;10294038;28;20081;-79
2023/11/19 19:24:30;;;;;;;1999.90;999.90;;;;;;;16.47;82.88;100573.38;10295228;28;20054;-79
2023/11/19 19:29:32;;;;;;;1999.90;999.90;;;;;;;16.75;83.03;100560.44;10294646;28;20058;-79
2023/11/19 19:34:36;;;;;;;1999.90;999.90;;;;;;;17.12;81.31;100557.22;10294175;28;20055;-79
2023/11/19 19:39:38;;;;;;;1999.90;999.90;;;;;;;16.20;85.01;100566.00;10293729;28;20050;-75
2023/11/19 19:44:41;;;;;;;1999.90;999.90;;;;;;;16.10;87.11;100555.38;10294585;28;20101;-79
2023/11/19 19:49:43;;;;;;;1999.90;999.90;;;;;;;16.39;84.67;100552.09;10294340;28;20532;-80
2023/11/19 19:54:46;;;;;;;1999.90;999.90;;;;;;;16.40;86.10;100545.00;10294243;28;20053;-81
2023/11/19 19:59:49;;;;;;;1999.90;999.90;;;;;;;16.67;84.42;100545.22;10293504;28;20051;-80
2023/11/19 20:04:52;;;;;;;1999.90;999.90;;;;;;;16.50;86.48;100545.88;10294211;28;20057;-80
2023/11/19 20:09:57;;;;;;;1999.90;999.90;;;;;;;16.18;89.61;100549.47;10294539;28;20055;-81
2023/11/19 20:15:01;;;;;;;1999.90;999.90;;;;;;;16.44;88.66;100549.03;10292786;28;20055;-80
2023/11/19 20:20:05;;;;;;;1999.90;999.90;;;;;;;16.24;88.01;100550.75;10292396;28;20057;-77
2023/11/19 20:25:08;;;;;;;1999.90;999.90;;;;;;;17.15;83.51;100551.66;10292212;28;20061;-80
2023/11/19 20:30:11;;;;;;;1999.90;999.90;;;;;;;16.37;86.16;100554.00;10293208;28;20062;-79
2023/11/19 20:35:13;;;;;;;1999.90;999.90;;;;;;;16.44;87.82;100547.25;10293019;28;20406;-80
2023/11/19 20:40:16;;;;;;;1999.90;999.90;;;;;;;16.70;88.38;100565.28;10291771;28;20055;-80
2023/11/19 20:45:20;;;;;;;1999.90;999.90;;;;;;;16.79;85.07;100569.75;10281998;28;20142;-80
2023/11/19 20:50:24;;;;;;;1999.90;999.90;;;;;;;16.74;86.83;100561.41;10318425;22;20055;-66
2023/11/19 20:55:27;;;;;;;1999.90;999.90;;;;;;;16.30;87.23;100566.06;10404893;28;20049;-66
2023/11/19 21:00:31;;;;;;;1999.90;999.90;;;;;;;16.27;87.29;100568.97;10404937;28;20076;-66
2023/11/19 21:05:35;;;;;;;1999.90;999.90;;;;;;;15.97;93.08;100583.81;10421355;28;20088;-68
2023/11/19 21:10:38;;;;;;;1999.90;999.90;;;;;;;16.40;88.34;100572.25;10404381;28;20128;-66
2023/11/19 21:15:41;;;;;;;1999.90;999.90;;;;;;;16.86;85.49;100578.03;10421114;28;20103;-66
2023/11/19 21:20:55;;;;;;;1999.90;999.90;;;;;;;16.50;88.81;100580.22;10420952;28;20543;-66
2023/11/19 21:26:01;;;;;;;1999.90;999.90;;;;;;;16.76;88.18;100577.13;10420701;28;20059;-67
2023/11/19 21:31:04;;;;;;;1999.90;999.90;;;;;;;16.24;89.67;100587.72;10420432;28;20049;-67
2023/11/19 21:36:07;;;;;;;1999.90;999.90;;;;;;;16.84;88.01;100582.59;10420220;28;20472;-67
2023/11/19 21:41:10;;;;;;;1999.90;999.90;;;;;;;16.58;86.72;100583.06;10402508;28;20048;-66
2023/11/19 21:46:14;;;;;;;1999.90;999.90;;;;;;;16.10;92.15;100580.97;10420023;28;20056;-66
2023/11/19 21:51:17;;;;;;;1999.90;999.90;;;;;;;16.30;90.08;100585.41;10419563;28;20095;-66
2023/11/19 21:56:19;;;;;;;1999.90;999.90;;;;;;;16.94;85.89;100590.59;10418289;28;20493;-66
2023/11/19 22:01:21;;;;;;;1999.90;999.90;;;;;;;16.58;88.65;100595.44;10419345;28;20046;-66
2023/11/19 22:06:24;;;;;;;1999.90;999.90;;;;;;;17.13;83.94;100593.31;10418879;28;20054;-67